Hallwood, California
Current Conditions -  °F | °C
As of 3:58 PM on Wednesday 28 Jan 2015 (Local Time) from KBAB Reporting Station
Clear Clear  
Wind Chill: 65°   Ceiling: Unl
Heat Index: 65°   Visibility: 10mi
Dew Point: 48°   Wind: 8mph
Humidity: 54%   Direction: 180°S
Pressure: 30.13"   Gusts: NA
Location:  39.1912°N, 121.489°W
Report Text: KBAB 282358Z AUTO 18007KT 10SM CLR 19/09 A3013 RMK AO2 SLP280 T01860091 10194 20086 56011 $
Loading
Personal Weather Stations






























Interactive Weather Map New forecast layout! Learn more

10-Day Weather Forecast

Advertisements
Track Severe Weather on mobile